Hiko, Nevada
Current Conditions -  °F | °C
As of 5:58 AM on Monday 20 Oct 2014 (Local Time) from KINS Reporting Station
Clear Clear  
Wind Chill: 52°   Ceiling: Unl
Heat Index: 52°   Visibility: 10mi
Dew Point: 30°   Wind: 0mph
Humidity: 44%   Direction: NA
Pressure: 29.96"   Gusts: NA
Location:  37.6°N, 115.23°W
Report Text: KINS 201258Z AUTO 00000KT 10SM CLR 11/M01 A2996 RMK AO2 SLP111 T01101010
Loading
Personal Weather Stations






























Interactive Weather Map
Tropical Storm Tracking
New forecast layout! Learn more

10-Day Weather Forecast

Advertisements
Track Severe Weather on mobile